Terminal Aerodrome Forecast
Issued by NWS

Home | Current Version | Previous Version | Text Only | Print | Product List | Glossary On
Versions: 1 2 3 4 5 6 7 8 9 10 11 12 13 14 15 16 17 18 19 20 21 22
491
FTUS46 KSEW 211147 AAA
TAFHQM
TAF AMD
KHQM 211147Z 2112/2212 00000KT 5SM BR BKN006
      TEMPO 2112/2115 2SM BR OVC004
     FM211800 18007KT P6SM BKN025 OVC080
     FM212100 22010KT P6SM OVC060
     FM220300 20005KT P6SM OVC012 PROB30 2206/2212 -RA=

USA.gov is the U.S. government's official web portal to all federal, state and local government web resources and services.